createdAt,value
2018-09-20T00:01:09.890Z,73.70
2018-09-20T00:03:38.235Z,74.81
2018-09-20T00:06:06.551Z,76.06
2018-09-20T00:08:34.890Z,76.09
2018-09-20T00:11:03.201Z,76.67
2018-09-20T00:13:31.563Z,77.08
2018-09-20T00:15:59.925Z,76.88
2018-09-20T00:18:28.394Z,77.58
2018-09-20T00:20:56.726Z,77.49
2018-09-20T00:23:25.040Z,77.91
2018-09-20T00:25:53.411Z,78.05
2018-09-20T00:28:21.752Z,78.48
2018-09-20T00:30:50.367Z,77.81
2018-09-20T00:33:18.713Z,78.29
2018-09-20T00:35:47.276Z,78.60
2018-09-20T00:38:15.711Z,77.71
2018-09-20T00:40:44.100Z,78.47
2018-09-20T00:43:12.377Z,79.36
2018-09-20T00:45:40.727Z,80.24
2018-09-20T00:48:09.040Z,80.04
2018-09-20T00:50:37.588Z,79.43
2018-09-20T00:53:06.243Z,78.73
2018-09-20T00:55:34.547Z,78.86
2018-09-20T00:58:02.855Z,79.04
2018-09-20T01:00:31.222Z,79.33
2018-09-20T01:02:59.670Z,79.46
2018-09-20T01:05:28.098Z,79.56
2018-09-20T01:07:56.434Z,80.41
2018-09-20T01:10:24.763Z,80.56
2018-09-20T01:12:53.098Z,79.82
2018-09-20T01:15:21.427Z,79.95
2018-09-20T01:17:49.781Z,80.26
2018-09-20T01:20:18.182Z,80.06
2018-09-20T01:22:46.607Z,79.72
2018-09-20T01:25:14.950Z,79.45
2018-09-20T01:27:43.304Z,79.93
2018-09-20T01:30:11.703Z,80.49
2018-09-20T01:32:40.018Z,79.83
2018-09-20T01:35:08.402Z,80.60
2018-09-20T01:37:36.744Z,80.05
2018-09-20T01:40:05.106Z,80.18
2018-09-20T01:42:33.430Z,80.92
2018-09-20T01:45:01.808Z,80.34
2018-09-20T01:47:30.127Z,80.37
2018-09-20T01:49:58.495Z,80.68
2018-09-20T01:52:26.871Z,79.55
2018-09-20T01:54:55.205Z,79.73
2018-09-20T01:57:23.558Z,79.97
2018-09-20T01:59:51.885Z,79.68
2018-09-20T02:02:21.003Z,80.37
2018-09-20T02:04:49.482Z,79.81
2018-09-20T02:07:17.942Z,80.31
2018-09-20T02:09:46.331Z,79.79
2018-09-20T02:12:14.646Z,81.24
2018-09-20T02:14:42.992Z,80.62
2018-09-20T02:17:11.305Z,80.96
2018-09-20T02:19:39.657Z,81.30
2018-09-20T02:22:08.054Z,80.18
2018-09-20T02:24:36.407Z,81.20
2018-09-20T02:27:04.719Z,80.77
2018-09-20T02:29:33.159Z,80.70
2018-09-20T02:32:01.507Z,80.73
2018-09-20T02:34:29.838Z,80.83
2018-09-20T02:36:58.183Z,81.43
2018-09-20T02:39:26.486Z,81.80
2018-09-20T02:41:54.848Z,82.24
2018-09-20T02:44:23.175Z,82.33
2018-09-20T02:46:51.572Z,81.56
2018-09-20T02:49:20.296Z,81.65
2018-09-20T02:51:48.638Z,82.37
2018-09-20T02:54:17.047Z,82.59
2018-09-20T02:56:45.423Z,81.92
2018-09-20T02:59:13.894Z,82.09
2018-09-20T03:01:42.300Z,82.63
2018-09-20T03:04:10.639Z,81.74
2018-09-20T03:06:38.934Z,81.23
2018-09-20T03:09:09.081Z,81.52
2018-09-20T03:11:37.449Z,81.84
2018-09-20T03:14:06.056Z,81.55
2018-09-20T03:16:34.434Z,81.63
2018-09-20T03:19:02.885Z,81.97
2018-09-20T03:21:31.336Z,81.24
2018-09-20T03:23:59.739Z,81.42
2018-09-20T03:26:28.394Z,82.13
2018-09-20T03:28:56.747Z,82.04
2018-09-20T03:31:25.090Z,83.14
2018-09-20T03:33:53.452Z,82.91
2018-09-20T03:36:21.784Z,83.24
2018-09-20T03:38:50.132Z,82.93
2018-09-20T03:41:18.562Z,83.00
2018-09-20T03:43:46.964Z,83.41
2018-09-20T03:46:15.284Z,82.83
2018-09-20T03:48:43.816Z,82.57
2018-09-20T03:51:12.389Z,83.38
2018-09-20T03:53:41.037Z,83.12
2018-09-20T03:56:09.422Z,82.77
2018-09-20T03:58:37.801Z,82.57
2018-09-20T04:01:06.177Z,83.46
2018-09-20T04:03:34.554Z,83.48
2018-09-20T04:06:02.950Z,83.00
2018-09-20T04:08:31.330Z,82.75
2018-09-20T04:10:59.675Z,82.37
2018-09-20T04:13:28.065Z,82.50
2018-09-20T04:15:56.428Z,81.84
2018-09-20T04:18:24.931Z,81.46
2018-09-20T04:20:53.253Z,83.01
2018-09-20T04:23:21.860Z,83.38
2018-09-20T04:25:50.181Z,83.80
2018-09-20T04:28:18.600Z,84.13
2018-09-20T04:30:46.928Z,83.54
2018-09-20T04:33:15.325Z,83.94
2018-09-20T04:35:43.657Z,83.88
2018-09-20T04:38:12.023Z,82.66
2018-09-20T04:40:40.334Z,81.74
2018-09-20T04:43:08.691Z,82.22
2018-09-20T04:45:37.023Z,82.27
2018-09-20T04:48:05.367Z,83.45
2018-09-20T04:50:33.710Z,83.54
2018-09-20T04:53:02.134Z,84.73
2018-09-20T04:55:30.467Z,85.00
2018-09-20T04:57:58.859Z,85.73
2018-09-20T05:00:27.187Z,85.68
2018-09-20T05:02:55.520Z,85.79
2018-09-20T05:05:23.826Z,84.30
2018-09-20T05:07:52.188Z,84.19
2018-09-20T05:10:20.559Z,83.99
2018-09-20T05:12:48.972Z,83.35
2018-09-20T05:15:17.351Z,83.11
2018-09-20T05:17:45.683Z,83.62
2018-09-20T05:20:14.105Z,83.11
2018-09-20T05:22:42.726Z,82.70
2018-09-20T05:25:18.425Z,83.62
2018-09-20T05:27:46.847Z,84.13
2018-09-20T05:30:15.263Z,83.59
2018-09-20T05:32:43.654Z,83.82
2018-09-20T05:35:12.039Z,84.06
2018-09-20T05:37:40.380Z,84.83
2018-09-20T05:40:08.838Z,85.26
2018-09-20T05:42:37.262Z,84.82
2018-09-20T05:45:06.082Z,85.62
2018-09-20T05:47:35.140Z,85.08
2018-09-20T05:50:03.565Z,85.54
2018-09-20T05:52:32.517Z,84.69
2018-09-20T05:55:01.000Z,83.10
2018-09-20T05:57:29.832Z,83.51
2018-09-20T05:59:58.166Z,81.40
2018-09-20T06:02:27.118Z,82.04
2018-09-20T06:04:55.571Z,83.76
2018-09-20T06:07:23.987Z,84.23
2018-09-20T06:09:52.491Z,85.68
2018-09-20T06:12:21.472Z,85.31
2018-09-20T06:14:49.898Z,84.61
2018-09-20T06:17:18.382Z,84.25
2018-09-20T06:19:46.866Z,83.55
2018-09-20T06:22:15.231Z,83.51
2018-09-20T06:24:43.604Z,84.04
2018-09-20T06:27:12.159Z,84.95
2018-09-20T06:29:40.532Z,84.21
2018-09-20T06:32:08.852Z,83.29
2018-09-20T06:34:37.411Z,83.23
2018-09-20T06:37:06.138Z,82.60
2018-09-20T06:39:34.473Z,82.04
2018-09-20T06:42:02.818Z,80.97
2018-09-20T06:44:31.187Z,80.94
2018-09-20T06:46:59.498Z,80.46
2018-09-20T06:49:27.884Z,81.60
2018-09-20T06:51:56.194Z,81.37
2018-09-20T06:54:45.464Z,81.51
2018-09-20T06:57:13.787Z,80.46
2018-09-20T06:59:42.403Z,80.50
2018-09-20T07:02:10.689Z,80.56
2018-09-20T07:04:45.302Z,79.99
2018-09-20T07:07:13.609Z,80.56
2018-09-20T07:09:42.224Z,78.42
2018-09-20T07:12:10.621Z,78.48
2018-09-20T07:14:39.005Z,77.45
2018-09-20T07:17:07.364Z,78.13
2018-09-20T07:19:35.709Z,77.11
2018-09-20T07:22:04.044Z,76.58
2018-09-20T07:24:32.397Z,75.09
2018-09-20T07:27:00.738Z,74.55
2018-09-20T07:29:29.060Z,73.99
2018-09-20T07:31:57.421Z,73.54
2018-09-20T07:34:25.800Z,74.83
2018-09-20T07:36:54.097Z,73.23
2018-09-20T07:39:22.461Z,72.83
2018-09-20T07:41:50.761Z,72.18
2018-09-20T07:44:19.095Z,71.75
2018-09-20T07:46:47.468Z,70.71
2018-09-20T07:49:15.809Z,71.01
2018-09-20T07:51:44.174Z,70.63
2018-09-20T07:54:12.513Z,70.31
2018-09-20T07:56:40.898Z,70.45
2018-09-20T07:59:09.220Z,70.12
2018-09-20T08:01:37.646Z,69.48
2018-09-20T08:04:05.985Z,69.88
2018-09-20T08:06:34.421Z,69.70
2018-09-20T08:09:02.821Z,69.85
2018-09-20T08:11:31.204Z,69.90
2018-09-20T08:13:59.553Z,69.87
2018-09-20T08:16:27.889Z,70.26
2018-09-20T08:18:59.184Z,69.34
2018-09-20T08:21:27.585Z,69.38
2018-09-20T08:23:55.990Z,68.88
2018-09-20T08:26:24.386Z,69.08
2018-09-20T08:28:52.865Z,68.31
2018-09-20T08:31:21.257Z,68.56
2018-09-20T08:33:49.592Z,67.95
2018-09-20T08:36:18.646Z,68.61
2018-09-20T08:38:46.965Z,67.40
2018-09-20T08:41:15.299Z,66.86
2018-09-20T08:43:43.629Z,66.65
2018-09-20T08:46:12.005Z,66.63
2018-09-20T08:48:40.346Z,66.10
2018-09-20T08:51:08.780Z,64.25
2018-09-20T08:53:37.063Z,64.42
2018-09-20T08:56:05.415Z,64.36
2018-09-20T08:58:33.997Z,65.45
2018-09-20T09:01:03.936Z,64.59
2018-09-20T09:03:32.296Z,64.48
2018-09-20T09:06:01.249Z,64.42
2018-09-20T09:08:29.634Z,64.50
2018-09-20T09:10:58.019Z,62.24
2018-09-20T09:13:26.365Z,63.24
2018-09-20T09:15:54.748Z,62.88
2018-09-20T09:18:23.104Z,62.35
2018-09-20T09:20:52.991Z,61.55
2018-09-20T09:23:27.349Z,61.99
2018-09-20T09:25:55.710Z,62.40
2018-09-20T09:28:24.094Z,62.39
2018-09-20T09:30:52.650Z,60.91
2018-09-20T09:33:20.994Z,61.30
2018-09-20T09:35:49.391Z,60.90
2018-09-20T09:38:17.758Z,60.06
2018-09-20T09:40:46.135Z,60.17
2018-09-20T09:43:14.451Z,59.81
2018-09-20T09:45:42.808Z,59.61
2018-09-20T09:48:11.209Z,60.28
2018-09-20T09:50:39.510Z,58.56
2018-09-20T09:53:07.936Z,59.60
2018-09-20T09:55:36.298Z,58.54
2018-09-20T09:58:04.631Z,58.68
2018-09-20T10:00:35.442Z,58.48
2018-09-20T10:03:03.790Z,57.68
2018-09-20T10:05:32.151Z,56.88
2018-09-20T10:08:00.513Z,57.25
2018-09-20T10:10:28.904Z,57.27
2018-09-20T10:12:57.257Z,56.27
2018-09-20T10:15:25.586Z,56.23
2018-09-20T10:17:53.897Z,56.74
2018-09-20T10:20:22.395Z,56.89
2018-09-20T10:22:50.745Z,56.50
2018-09-20T10:25:19.290Z,56.26
2018-09-20T10:27:47.688Z,55.25
2018-09-20T10:30:16.112Z,55.69
2018-09-20T10:32:44.457Z,53.39
2018-09-20T10:35:12.822Z,52.91
2018-09-20T10:37:41.153Z,54.36
2018-09-20T10:40:09.643Z,54.25
2018-09-20T10:42:38.021Z,54.12
2018-09-20T10:45:06.392Z,52.84
2018-09-20T10:47:34.780Z,52.01
2018-09-20T10:50:03.130Z,52.80
2018-09-20T10:52:31.514Z,52.81
2018-09-20T10:54:59.885Z,53.01
2018-09-20T10:57:28.261Z,52.71
2018-09-20T10:59:56.619Z,53.28
2018-09-20T11:02:24.929Z,53.10
2018-09-20T11:04:53.380Z,52.93
2018-09-20T11:07:21.798Z,51.62
2018-09-20T11:09:50.141Z,52.33
2018-09-20T11:12:18.515Z,51.57
2018-09-20T11:14:46.862Z,50.97
2018-09-20T11:17:15.240Z,51.71
2018-09-20T11:19:43.553Z,50.64
2018-09-20T11:22:11.919Z,51.56
2018-09-20T11:24:40.284Z,51.03
2018-09-20T11:27:08.611Z,49.66
2018-09-20T11:29:37.088Z,49.03
2018-09-20T11:32:05.456Z,49.44
2018-09-20T11:34:33.813Z,50.04
2018-09-20T11:37:02.125Z,47.54
2018-09-20T11:39:30.513Z,48.53
2018-09-20T11:41:58.859Z,47.49
2018-09-20T11:44:27.183Z,47.84
2018-09-20T11:46:55.556Z,48.02
2018-09-20T11:49:23.876Z,46.37
2018-09-20T11:51:52.285Z,46.37
2018-09-20T11:54:20.609Z,48.13
2018-09-20T11:56:48.965Z,45.91
2018-09-20T11:59:17.335Z,45.67
2018-09-20T12:01:45.812Z,45.14
2018-09-20T12:04:14.161Z,44.48
2018-09-20T12:06:42.567Z,45.41
2018-09-20T12:09:11.091Z,44.27
2018-09-20T12:11:39.441Z,45.75
2018-09-20T12:14:07.790Z,44.08
2018-09-20T12:16:36.108Z,44.59
2018-09-20T12:19:04.472Z,44.03
2018-09-20T12:21:32.911Z,44.50
2018-09-20T12:24:01.235Z,44.34
2018-09-20T12:26:29.648Z,44.48
2018-09-20T12:28:57.971Z,45.02
2018-09-20T12:31:34.570Z,42.76
2018-09-20T12:34:02.931Z,43.29
2018-09-20T12:36:31.279Z,44.51
2018-09-20T12:38:59.651Z,43.15
2018-09-20T12:41:28.166Z,44.02
2018-09-20T12:43:56.516Z,42.57
2018-09-20T12:46:25.159Z,42.65
2018-09-20T12:48:55.520Z,43.66
2018-09-20T12:51:24.126Z,42.39
2018-09-20T12:53:59.172Z,42.20
2018-09-20T12:56:27.657Z,42.04
2018-09-20T12:58:57.477Z,42.72
2018-09-20T13:01:27.423Z,42.49
2018-09-20T13:03:56.504Z,42.43
2018-09-20T13:06:28.856Z,42.48
2018-09-20T13:08:57.544Z,43.31
2018-09-20T13:11:28.006Z,42.83
2018-09-20T13:13:58.275Z,42.77
2018-09-20T13:16:32.059Z,43.27
2018-09-20T13:19:00.635Z,41.59
2018-09-20T13:21:29.975Z,40.70
2018-09-20T13:24:02.213Z,42.22
2018-09-20T13:26:31.549Z,41.15
2018-09-20T13:29:00.267Z,40.33
2018-09-20T13:31:32.885Z,41.49
2018-09-20T13:34:01.661Z,40.80
2018-09-20T13:36:31.747Z,39.16
2018-09-20T13:39:00.192Z,39.35
2018-09-20T13:41:28.757Z,40.65
2018-09-20T13:43:57.791Z,40.29
2018-09-20T13:46:26.673Z,40.47
2018-09-20T13:48:55.927Z,40.41
2018-09-20T13:51:26.545Z,41.48
2018-09-20T13:53:54.893Z,41.62
2018-09-20T13:56:25.169Z,41.08
2018-09-20T13:58:55.358Z,40.17
2018-09-20T14:01:23.854Z,41.90
2018-09-20T14:03:53.635Z,39.80
2018-09-20T14:06:22.168Z,41.45
2018-09-20T14:08:51.704Z,40.32
2018-09-20T14:11:20.765Z,41.91
2018-09-20T14:13:49.346Z,40.12
2018-09-20T14:16:18.266Z,40.85
2018-09-20T14:18:47.652Z,40.09
2018-09-20T14:21:18.755Z,39.24
2018-09-20T14:23:48.813Z,39.92
2018-09-20T14:26:17.900Z,40.20
2018-09-20T14:28:46.334Z,40.80
2018-09-20T14:31:14.905Z,40.70
2018-09-20T14:33:43.475Z,40.41
2018-09-20T14:36:13.803Z,41.26
2018-09-20T14:38:43.006Z,40.28
2018-09-20T14:41:13.389Z,40.86
2018-09-20T14:43:42.343Z,39.64
2018-09-20T14:46:16.414Z,40.53
2018-09-20T14:48:45.449Z,40.16
2018-09-20T14:51:15.220Z,38.00
2018-09-20T14:53:44.807Z,39.09
2018-09-20T14:56:13.184Z,40.20
2018-09-20T14:58:41.572Z,39.48
2018-09-20T15:01:09.956Z,38.61
2018-09-20T15:03:38.306Z,39.40
2018-09-20T15:06:06.754Z,39.46
2018-09-20T15:08:35.116Z,40.07
2018-09-20T15:11:03.617Z,41.12
2018-09-20T15:13:32.161Z,38.13
2018-09-20T15:16:00.666Z,39.17
2018-09-20T15:18:29.902Z,38.50
2018-09-20T15:20:58.202Z,37.28
2018-09-20T15:23:26.671Z,38.07
2018-09-20T15:25:55.255Z,38.47
2018-09-20T15:28:23.746Z,39.44
2018-09-20T15:30:52.492Z,37.15
2018-09-20T15:33:33.293Z,38.33
2018-09-20T15:36:29.223Z,37.96
2018-09-20T15:39:03.219Z,39.74
2018-09-20T15:41:31.674Z,39.20
2018-09-20T15:44:00.459Z,38.74
2018-09-20T15:46:29.074Z,39.75
2018-09-20T15:48:57.425Z,40.30
2018-09-20T15:51:25.878Z,40.73
2018-09-20T15:53:55.543Z,37.99
2018-09-20T15:56:23.926Z,38.96
2018-09-20T15:58:52.358Z,38.54
2018-09-20T16:01:20.870Z,40.26
2018-09-20T16:03:49.382Z,40.97
2018-09-20T16:06:18.141Z,39.96
2018-09-20T16:08:47.748Z,40.87
2018-09-20T16:11:17.327Z,40.13
2018-09-20T16:13:46.066Z,39.24
2018-09-20T16:16:14.551Z,39.24
2018-09-20T16:18:43.062Z,41.08
2018-09-20T16:21:17.594Z,40.61
2018-09-20T16:23:46.155Z,40.25
2018-09-20T16:26:14.754Z,41.38
2018-09-20T16:28:56.160Z,40.50
2018-09-20T16:31:51.964Z,42.54
2018-09-20T16:35:32.150Z,41.73
2018-09-20T16:38:28.331Z,43.59
2018-09-20T16:40:59.471Z,41.88
2018-09-20T16:43:29.949Z,41.25
2018-09-20T16:46:00.590Z,42.66
2018-09-20T16:48:29.197Z,41.38
2018-09-20T16:50:57.781Z,42.80
2018-09-20T16:56:18.902Z,42.90
2018-09-20T16:58:48.391Z,43.97
2018-09-20T17:04:05.491Z,45.02
2018-09-20T17:06:35.083Z,45.73
2018-09-20T17:23:27.603Z,49.16
2018-09-20T17:25:56.187Z,50.01
2018-09-20T17:28:24.819Z,50.88
2018-09-20T17:30:53.272Z,51.11
2018-09-20T17:33:28.468Z,51.91
2018-09-20T17:35:57.103Z,52.31
2018-09-20T17:38:25.990Z,52.42
2018-09-20T17:41:12.008Z,52.76
2018-09-20T17:43:53.766Z,53.17
2018-09-20T17:46:22.352Z,53.19
2018-09-20T17:48:50.860Z,53.62
2018-09-20T17:51:20.516Z,54.53
2018-09-20T17:53:49.389Z,55.44
2018-09-20T17:56:18.212Z,55.26
2018-09-20T17:58:47.140Z,55.74
2018-09-20T18:01:15.567Z,55.19
2018-09-20T18:03:44.014Z,56.73
2018-09-20T18:06:12.473Z,56.19
2018-09-20T18:08:40.883Z,56.91
2018-09-20T18:11:10.721Z,56.88
2018-09-20T18:13:45.499Z,57.54
2018-09-20T18:16:17.229Z,57.29
2018-09-20T18:19:02.325Z,57.40
2018-09-20T18:21:30.788Z,58.22
2018-09-20T18:24:11.772Z,57.82
2018-09-20T18:26:40.795Z,57.78
2018-09-20T18:29:09.444Z,58.95
2018-09-20T18:31:39.054Z,57.88
2018-09-20T18:34:08.324Z,59.20
2018-09-20T18:36:36.701Z,59.70
2018-09-20T18:39:10.261Z,59.65
2018-09-20T18:41:40.047Z,59.79
2018-09-20T18:44:09.381Z,59.74
2018-09-20T18:46:37.876Z,60.54
2018-09-20T18:49:14.767Z,59.70
2018-09-20T18:51:47.835Z,60.27
2018-09-20T18:54:20.251Z,61.51
2018-09-20T18:56:48.679Z,61.97
2018-09-20T18:59:17.068Z,62.18
2018-09-20T19:01:45.496Z,62.13
2018-09-20T19:04:14.128Z,64.11
2018-09-20T19:06:46.126Z,63.49
2018-09-20T19:09:14.803Z,64.05
2018-09-20T19:11:43.625Z,64.06
2018-09-20T19:14:13.594Z,63.83
2018-09-20T19:16:43.536Z,64.40
2018-09-20T19:19:20.113Z,64.59
2018-09-20T19:21:48.610Z,64.75
2018-09-20T19:24:17.210Z,65.49
2018-09-20T19:26:46.104Z,65.28
2018-09-20T19:29:15.064Z,65.80
2018-09-20T19:31:44.949Z,65.90
2018-09-20T19:34:13.694Z,65.83
2018-09-20T19:36:43.293Z,65.67
2018-09-20T19:39:17.329Z,65.55
2018-09-20T19:41:46.486Z,65.80
2018-09-20T19:44:15.145Z,65.27
2018-09-20T19:46:44.250Z,65.64
2018-09-20T19:49:12.963Z,65.89
2018-09-20T19:51:43.561Z,65.76
2018-09-20T19:54:12.420Z,66.54
2018-09-20T19:56:41.228Z,66.97
2018-09-20T19:59:10.702Z,66.02
2018-09-20T20:01:40.237Z,67.55
2018-09-20T20:04:09.121Z,67.15
2018-09-20T20:06:37.967Z,66.66
2018-09-20T20:09:10.309Z,66.52
2018-09-20T20:11:39.072Z,66.81
2018-09-20T20:14:09.722Z,66.81
2018-09-20T20:16:38.655Z,65.95
2018-09-20T20:19:07.180Z,66.41
2018-09-20T20:21:35.654Z,66.20
2018-09-20T20:24:04.299Z,66.81
2018-09-20T20:26:32.634Z,66.33
2018-09-20T20:29:01.249Z,67.03
2018-09-20T20:31:29.619Z,66.72
2018-09-20T20:33:57.930Z,66.37
2018-09-20T20:36:26.766Z,66.31
2018-09-20T20:38:55.380Z,66.87
2018-09-20T20:41:23.716Z,66.40
2018-09-20T20:43:52.450Z,66.71
2018-09-20T20:46:20.758Z,67.42
2018-09-20T20:48:49.149Z,67.08
2018-09-20T20:51:18.523Z,67.45
2018-09-20T20:53:46.943Z,67.62
2018-09-20T20:56:15.368Z,67.73
2018-09-20T20:58:43.768Z,68.00
2018-09-20T21:01:20.702Z,68.42
2018-09-20T21:03:50.721Z,68.27
2018-09-20T21:06:19.758Z,68.36
2018-09-20T21:08:48.269Z,68.08
2018-09-20T21:11:17.184Z,68.31
2018-09-20T21:13:45.656Z,68.44
2018-09-20T21:16:14.062Z,67.97
2018-09-20T21:18:42.379Z,68.80
2018-09-20T21:21:10.875Z,68.34
2018-09-20T21:23:39.200Z,68.06
2018-09-20T21:26:07.682Z,67.43
2018-09-20T21:28:36.042Z,68.37
2018-09-20T21:31:04.481Z,68.29
2018-09-20T21:33:32.840Z,67.83
2018-09-20T21:36:01.344Z,67.58
2018-09-20T21:38:29.763Z,67.97
2018-09-20T21:41:32.605Z,68.07
2018-09-20T21:44:00.939Z,68.12
2018-09-20T21:46:29.339Z,67.96
2018-09-20T21:48:57.706Z,68.40
2018-09-20T21:51:26.103Z,68.93
2018-09-20T21:53:54.442Z,68.66
2018-09-20T21:56:22.831Z,69.19
2018-09-20T21:58:51.189Z,69.36
2018-09-20T22:01:19.505Z,69.18
2018-09-20T22:03:47.876Z,69.23
2018-09-20T22:06:16.311Z,69.22
2018-09-20T22:08:44.947Z,69.71
2018-09-20T22:11:13.497Z,69.83
2018-09-20T22:13:41.853Z,70.13
2018-09-20T22:16:10.387Z,70.04
2018-09-20T22:18:38.737Z,69.83
2018-09-20T22:21:07.108Z,70.33
2018-09-20T22:23:35.471Z,70.12
2018-09-20T22:26:03.871Z,69.87
2018-09-20T22:28:32.173Z,70.37
2018-09-20T22:31:00.503Z,70.88
2018-09-20T22:33:28.851Z,70.03
2018-09-20T22:35:58.024Z,71.62
2018-09-20T22:38:26.397Z,70.80
2018-09-20T22:40:54.724Z,71.27
2018-09-20T22:43:23.063Z,71.56
2018-09-20T22:45:51.416Z,72.11
2018-09-20T22:48:19.781Z,71.46
2018-09-20T22:50:48.111Z,71.30
2018-09-20T22:53:16.464Z,71.35
2018-09-20T22:55:44.793Z,71.06
2018-09-20T22:58:13.117Z,71.97
2018-09-20T23:00:41.472Z,71.93
2018-09-20T23:03:16.420Z,72.00
2018-09-20T23:05:44.741Z,71.33
2018-09-20T23:08:13.112Z,71.18
2018-09-20T23:10:41.465Z,72.43
2018-09-20T23:13:09.809Z,72.08
2018-09-20T23:15:38.142Z,72.30
2018-09-20T23:18:06.547Z,71.74
2018-09-20T23:20:35.081Z,72.09
2018-09-20T23:23:03.518Z,72.44
2018-09-20T23:25:31.896Z,72.39
2018-09-20T23:28:00.273Z,72.63
2018-09-20T23:30:28.633Z,72.95
2018-09-20T23:32:56.984Z,71.78
2018-09-20T23:35:25.340Z,72.87
2018-09-20T23:37:53.661Z,72.71
2018-09-20T23:40:22.017Z,72.79
2018-09-20T23:42:50.433Z,72.67
2018-09-20T23:45:18.782Z,73.05
2018-09-20T23:47:47.142Z,72.77
2018-09-20T23:50:15.665Z,73.23
2018-09-20T23:52:44.020Z,73.72
2018-09-20T23:55:12.365Z,73.39
2018-09-20T23:57:40.707Z,74.63
